Time;durP1;ratioP1;P1;durP2;ratioP2;P2;SDS_P1;SDS_P2;PMS_P1;PMS_P2;Temp;Humidity;BMP_temperature;BMP_pressure;BME280_temperature;BME280_humidity;BME280_pressure;Samples;Min_cycle;Max_cycle;Signal;HPM_P1;HPM_P2
2021/07/22 00:00:51;;;;;;;;;;;16.50;99.90;;;;;;5093188;28;20017;-59
2021/07/22 00:03:40;;;;;;;;;;;16.50;99.90;;;;;;5097768;28;19924;-59
2021/07/22 00:07:07;;;;;;;;;;;16.50;99.90;;;;;;5096294;28;19928;-59
2021/07/22 00:09:57;;;;;;;;;;;16.40;99.90;;;;;;5098016;28;19924;-61
2021/07/22 00:12:46;;;;;;;;;;;16.40;99.90;;;;;;5096328;28;20264;-59
2021/07/22 00:15:35;;;;;;;;;;;16.30;99.90;;;;;;5093719;28;19981;-59
2021/07/22 00:18:24;;;;;;;;;;;16.30;99.90;;;;;;5100103;28;19932;-59
2021/07/22 00:21:12;;;;;;;;;;;16.30;99.90;;;;;;5096999;28;19947;-59
2021/07/22 00:24:01;;;;;;;;;;;16.20;99.90;;;;;;5099689;28;19932;-59
2021/07/22 00:26:50;;;;;;;;;;;16.20;99.90;;;;;;5094784;28;19931;-59
2021/07/22 00:29:38;;;;;;;;;;;16.20;99.90;;;;;;5097399;28;20399;-59
2021/07/22 00:32:27;;;;;;;;;;;16.20;99.90;;;;;;5086433;28;19931;-59
2021/07/22 00:35:16;;;;;;;;;;;16.20;99.90;;;;;;5086644;28;19924;-59
2021/07/22 00:38:06;;;;;;;;;;;16.30;99.90;;;;;;5094896;28;21252;-59
2021/07/22 00:40:56;;;;;;;;;;;16.30;99.90;;;;;;5094633;28;19935;-59
2021/07/22 00:43:45;;;;;;;;;;;16.30;99.90;;;;;;5084404;28;19977;-59
2021/07/22 00:46:35;;;;;;;;;;;16.30;99.90;;;;;;5080078;28;20253;-59
2021/07/22 00:49:23;;;;;;;;;;;16.20;99.90;;;;;;5096596;28;20387;-59
2021/07/22 00:52:12;;;;;;;;;;;16.20;99.90;;;;;;5092350;28;19923;-59
2021/07/22 00:55:01;;;;;;;;;;;16.10;99.90;;;;;;5095157;28;19943;-59
2021/07/22 00:57:50;;;;;;;;;;;16.10;99.90;;;;;;5096818;28;19931;-59
2021/07/22 01:03:53;;;;;;;;;;;16.10;99.90;;;;;;5093845;28;19924;-59
2021/07/22 01:06:43;;;;;;;;;;;16.10;99.90;;;;;;5094012;28;19931;-59
2021/07/22 01:09:36;;;;;;;;;;;16.00;99.90;;;;;;5093619;28;20402;-59
2021/07/22 01:12:26;;;;;;;;;;;16.00;99.90;;;;;;5098797;28;19924;-58
2021/07/22 01:15:14;;;;;;;;;;;15.90;99.90;;;;;;5099063;28;19924;-59
2021/07/22 01:18:05;;;;;;;;;;;15.90;99.90;;;;;;5095938;28;20012;-59
2021/07/22 01:20:56;;;;;;;;;;;15.80;99.90;;;;;;5091322;28;19924;-58
2021/07/22 01:23:44;;;;;;;;;;;15.80;99.90;;;;;;5105194;28;20013;-59
2021/07/22 01:26:55;;;;;;;;;;;15.80;99.90;;;;;;5104371;28;19931;-58
2021/07/22 01:30:04;;;;;;;;;;;15.80;99.90;;;;;;5101004;27;19924;-58
2021/07/22 01:32:53;;;;;;;;;;;15.70;99.90;;;;;;5110622;28;20422;-59
2021/07/22 01:35:42;;;;;;;;;;;15.70;99.90;;;;;;5098869;28;19981;-58
2021/07/22 01:38:32;;;;;;;;;;;15.60;99.90;;;;;;5101046;28;19931;-58
2021/07/22 01:41:20;;;;;;;;;;;15.60;99.90;;;;;;5094463;28;19958;-58
2021/07/22 01:44:09;;;;;;;;;;;15.50;99.90;;;;;;5099940;28;19924;-58
2021/07/22 01:46:57;;;;;;;;;;;15.50;99.90;;;;;;5097248;28;20582;-58
2021/07/22 01:49:46;;;;;;;;;;;15.40;99.90;;;;;;5094681;28;19978;-58
2021/07/22 01:52:34;;;;;;;;;;;15.30;99.90;;;;;;5094261;28;20449;-60
2021/07/22 01:55:24;;;;;;;;;;;15.20;99.90;;;;;;5096468;28;20337;-58
2021/07/22 01:58:20;;;;;;;;;;;15.10;99.90;;;;;;5096554;28;19935;-58
2021/07/22 02:01:08;;;;;;;;;;;15.00;99.90;;;;;;5104252;27;20296;-58
2021/07/22 02:03:58;;;;;;;;;;;14.90;99.90;;;;;;5095636;28;19949;-58
2021/07/22 02:06:48;;;;;;;;;;;14.90;99.90;;;;;;5094279;28;19924;-58
2021/07/22 02:09:39;;;;;;;;;;;14.80;99.90;;;;;;5107248;27;20020;-58
2021/07/22 02:12:29;;;;;;;;;;;14.70;99.90;;;;;;5107059;28;19924;-58
2021/07/22 02:15:43;;;;;;;;;;;14.70;99.90;;;;;;5098542;28;19959;-58
2021/07/22 02:18:37;;;;;;;;;;;14.60;99.90;;;;;;5102267;28;19928;-59
2021/07/22 02:21:32;;;;;;;;;;;14.50;99.90;;;;;;5100713;28;19924;-60
2021/07/22 02:24:21;;;;;;;;;;;14.50;99.90;;;;;;5098665;28;19930;-58
2021/07/22 02:27:22;;;;;;;;;;;14.40;99.90;;;;;;5095199;28;20010;-58
2021/07/22 02:30:15;;;;;;;;;;;14.30;99.90;;;;;;5086248;28;19972;-58
2021/07/22 02:33:04;;;;;;;;;;;14.40;99.90;;;;;;5104426;28;19981;-59
2021/07/22 02:35:54;;;;;;;;;;;14.30;99.90;;;;;;5100390;28;19928;-58
2021/07/22 02:39:24;;;;;;;;;;;14.20;99.90;;;;;;5094270;28;19924;-58
2021/07/22 02:42:14;;;;;;;;;;;14.10;99.90;;;;;;5087029;28;19924;-58
2021/07/22 02:45:04;;;;;;;;;;;14.10;99.90;;;;;;5082000;28;20387;-58
2021/07/22 02:47:56;;;;;;;;;;;14.10;99.90;;;;;;5095685;28;20198;-58
2021/07/22 02:50:46;;;;;;;;;;;14.00;99.90;;;;;;5088831;28;19966;-58
2021/07/22 02:53:36;;;;;;;;;;;14.10;99.90;;;;;;5091681;28;19927;-58
2021/07/22 02:56:51;;;;;;;;;;;14.00;99.90;;;;;;5103760;28;19928;-58
2021/07/22 02:59:44;;;;;;;;;;;13.90;99.90;;;;;;5098281;28;19988;-58
2021/07/22 03:02:33;;;;;;;;;;;13.90;99.90;;;;;;5098584;28;19963;-58
2021/07/22 03:05:24;;;;;;;;;;;13.80;99.90;;;;;;5098690;28;19935;-58
2021/07/22 03:08:13;;;;;;;;;;;13.80;99.90;;;;;;5097185;28;19928;-58
2021/07/22 03:11:02;;;;;;;;;;;13.80;99.90;;;;;;5095309;28;20016;-58
2021/07/22 03:13:51;;;;;;;;;;;13.70;99.90;;;;;;5093849;28;19931;-58
2021/07/22 03:16:40;;;;;;;;;;;13.70;99.90;;;;;;5091565;28;19937;-58
2021/07/22 03:19:36;;;;;;;;;;;13.60;99.90;;;;;;5095904;28;19965;-58
2021/07/22 03:22:36;;;;;;;;;;;13.60;99.90;;;;;;5104741;28;19934;-58
2021/07/22 03:25:32;;;;;;;;;;;13.60;99.90;;;;;;5090352;28;19939;-58
2021/07/22 03:28:41;;;;;;;;;;;13.60;99.90;;;;;;5096189;28;19958;-63
2021/07/22 03:31:56;;;;;;;;;;;13.60;99.90;;;;;;5092455;28;19973;-59
2021/07/22 03:34:51;;;;;;;;;;;13.50;99.90;;;;;;5099815;28;19939;-58
2021/07/22 03:37:59;;;;;;;;;;;13.50;99.90;;;;;;5093402;28;20329;-58
2021/07/22 03:40:48;;;;;;;;;;;13.50;99.90;;;;;;5097329;28;19968;-59
2021/07/22 03:43:36;;;;;;;;;;;13.50;99.90;;;;;;5098877;28;19946;-58
2021/07/22 03:46:26;;;;;;;;;;;13.50;99.90;;;;;;5089081;28;20012;-58
2021/07/22 03:49:15;;;;;;;;;;;13.50;99.90;;;;;;5094162;28;19941;-58
2021/07/22 03:52:04;;;;;;;;;;;13.50;99.90;;;;;;5083132;28;20021;-58
2021/07/22 03:55:02;;;;;;;;;;;13.50;99.90;;;;;;5106887;28;19965;-58
2021/07/22 03:57:51;;;;;;;;;;;13.50;99.90;;;;;;5104137;28;19938;-58
2021/07/22 04:03:54;;;;;;;;;;;13.50;99.90;;;;;;5096667;28;20023;-58
2021/07/22 04:06:44;;;;;;;;;;;13.50;99.90;;;;;;5089113;28;19941;-58
2021/07/22 04:09:50;;;;;;;;;;;13.50;99.90;;;;;;5095324;28;19934;-58
2021/07/22 04:12:55;;;;;;;;;;;13.50;99.90;;;;;;5098322;28;19963;-62
2021/07/22 04:15:56;;;;;;;;;;;13.60;99.90;;;;;;5090652;27;19950;-58
2021/07/22 04:19:23;;;;;;;;;;;13.70;99.90;;;;;;5103814;28;19928;-58
2021/07/22 04:22:35;;;;;;;;;;;13.70;99.90;;;;;;5091685;28;19935;-58
2021/07/22 04:25:46;;;;;;;;;;;13.80;99.90;;;;;;5090987;28;20014;-58
2021/07/22 04:28:41;;;;;;;;;;;13.80;99.90;;;;;;5108293;28;19932;-58
2021/07/22 04:31:30;;;;;;;;;;;13.90;99.90;;;;;;5089394;28;19934;-58
2021/07/22 04:34:44;;;;;;;;;;;14.00;99.90;;;;;;5106160;28;19931;-59
2021/07/22 04:37:53;;;;;;;;;;;14.10;99.90;;;;;;5094543;28;19938;-59
2021/07/22 04:41:05;;;;;;;;;;;14.20;99.90;;;;;;5102614;28;19931;-59
2021/07/22 04:44:26;;;;;;;;;;;14.30;99.90;;;;;;5107157;28;19931;-61
2021/07/22 04:47:34;;;;;;;;;;;14.40;99.90;;;;;;5093165;28;20313;-60
2021/07/22 04:50:48;;;;;;;;;;;14.50;99.90;;;;;;5106420;28;20022;-59
2021/07/22 04:54:03;;;;;;;;;;;14.50;99.90;;;;;;5099280;28;19951;-59
2021/07/22 04:56:52;;;;;;;;;;;14.70;99.90;;;;;;5105002;28;20419;-59
2021/07/22 04:59:42;;;;;;;;;;;14.80;99.90;;;;;;5106416;28;19924;-59
2021/07/22 05:02:31;;;;;;;;;;;14.90;99.90;;;;;;5095769;28;19931;-58
2021/07/22 05:05:20;;;;;;;;;;;15.00;99.90;;;;;;5106581;28;19924;-58
2021/07/22 05:08:54;;;;;;;;;;;15.20;99.90;;;;;;5077391;28;19957;-59
2021/07/22 05:12:06;;;;;;;;;;;15.40;99.90;;;;;;5112218;28;19924;-59
2021/07/22 05:15:07;;;;;;;;;;;15.60;99.90;;;;;;5093038;28;19924;-60
2021/07/22 05:18:03;;;;;;;;;;;15.80;99.90;;;;;;5101798;28;19946;-59
2021/07/22 05:21:09;;;;;;;;;;;15.90;99.90;;;;;;5113183;28;20287;-59
2021/07/22 05:24:27;;;;;;;;;;;16.10;99.90;;;;;;5104231;28;19928;-59
2021/07/22 05:27:28;;;;;;;;;;;16.20;99.90;;;;;;5115364;28;19934;-59
2021/07/22 05:30:34;;;;;;;;;;;16.50;99.90;;;;;;5095621;28;19984;-59
2021/07/22 05:33:38;;;;;;;;;;;16.50;99.90;;;;;;5106175;28;19973;-59
2021/07/22 05:36:47;;;;;;;;;;;16.60;99.90;;;;;;5098982;28;19968;-59
2021/07/22 05:39:44;;;;;;;;;;;16.80;99.90;;;;;;5112025;28;20356;-59
2021/07/22 05:42:34;;;;;;;;;;;17.00;99.90;;;;;;5114391;28;20008;-59
2021/07/22 05:45:22;;;;;;;;;;;17.20;99.90;;;;;;5107896;28;20826;-59
2021/07/22 05:48:12;;;;;;;;;;;17.40;99.90;;;;;;5114172;28;20370;-59
2021/07/22 05:51:01;;;;;;;;;;;17.50;99.90;;;;;;5113736;28;20011;-59
2021/07/22 05:53:49;;;;;;;;;;;17.80;99.90;;;;;;5113606;28;19963;-59
2021/07/22 05:56:38;;;;;;;;;;;18.10;99.90;;;;;;5113883;28;20026;-59
2021/07/22 05:59:26;;;;;;;;;;;18.10;99.90;;;;;;5108964;28;19970;-60
2021/07/22 06:05:31;;;;;;;;;;;17.90;99.90;;;;;;5116192;27;19962;-61
2021/07/22 06:08:20;;;;;;;;;;;18.20;99.90;;;;;;5113497;28;20355;-60
2021/07/22 06:11:08;;;;;;;;;;;18.20;99.90;;;;;;5108953;28;19938;-59
2021/07/22 06:13:57;;;;;;;;;;;18.20;99.90;;;;;;5113908;28;19924;-60
2021/07/22 06:16:45;;;;;;;;;;;18.60;99.90;;;;;;5107232;28;19930;-61
2021/07/22 06:19:34;;;;;;;;;;;18.80;99.90;;;;;;5114480;28;19934;-59
2021/07/22 06:22:23;;;;;;;;;;;18.90;99.90;;;;;;5104738;28;20010;-60
2021/07/22 06:25:12;;;;;;;;;;;19.00;99.90;;;;;;5114905;28;19931;-60
2021/07/22 06:28:01;;;;;;;;;;;19.30;99.90;;;;;;5113853;28;19930;-59
2021/07/22 06:30:50;;;;;;;;;;;19.20;99.90;;;;;;5106052;28;20351;-59
2021/07/22 06:33:38;;;;;;;;;;;19.20;99.90;;;;;;5108528;28;19998;-59
2021/07/22 06:36:27;;;;;;;;;;;19.30;99.90;;;;;;5111676;28;20375;-60
2021/07/22 06:39:17;;;;;;;;;;;20.00;99.90;;;;;;5109036;28;19966;-60
2021/07/22 06:42:05;;;;;;;;;;;20.30;99.90;;;;;;5109974;28;19934;-59
2021/07/22 06:44:53;;;;;;;;;;;20.70;99.90;;;;;;5110175;28;19957;-59
2021/07/22 06:47:47;;;;;;;;;;;21.00;99.90;;;;;;5107320;28;19936;-59
2021/07/22 06:50:36;;;;;;;;;;;21.20;99.90;;;;;;5110983;28;19924;-61
2021/07/22 06:53:24;;;;;;;;;;;21.60;99.90;;;;;;5112149;28;19967;-60
2021/07/22 06:56:14;;;;;;;;;;;21.90;99.90;;;;;;5107388;28;19931;-60
2021/07/22 06:59:02;;;;;;;;;;;22.60;99.10;;;;;;5110932;28;19967;-60
2021/07/22 07:01:51;;;;;;;;;;;23.30;98.30;;;;;;5093646;28;20372;-60
2021/07/22 07:04:39;;;;;;;;;;;24.00;96.80;;;;;;5108943;28;19931;-60
2021/07/22 07:07:27;;;;;;;;;;;24.80;95.00;;;;;;5109674;28;19924;-60
2021/07/22 07:10:16;;;;;;;;;;;23.90;94.90;;;;;;5110399;28;19944;-60
2021/07/22 07:13:06;;;;;;;;;;;23.60;95.70;;;;;;5110395;28;20014;-60
2021/07/22 07:15:54;;;;;;;;;;;24.90;94.60;;;;;;5101864;28;19984;-64
2021/07/22 07:18:43;;;;;;;;;;;25.90;93.40;;;;;;5110231;28;19930;-61
2021/07/22 07:21:37;;;;;;;;;;;25.70;92.30;;;;;;5094366;28;20022;-61
2021/07/22 07:24:25;;;;;;;;;;;26.80;91.40;;;;;;5111792;28;20031;-61
2021/07/22 07:27:13;;;;;;;;;;;28.30;86.10;;;;;;5108493;28;19924;-61
2021/07/22 07:30:03;;;;;;;;;;;26.80;88.70;;;;;;5108244;28;20415;-60
2021/07/22 07:32:52;;;;;;;;;;;27.70;87.90;;;;;;5107532;28;19962;-60
2021/07/22 07:35:42;;;;;;;;;;;28.30;83.90;;;;;;5106648;28;19946;-60
2021/07/22 07:38:30;;;;;;;;;;;27.80;84.90;;;;;;5105689;28;19930;-60
2021/07/22 07:41:19;;;;;;;;;;;27.90;84.00;;;;;;5108022;28;20315;-60
2021/07/22 07:44:07;;;;;;;;;;;27.80;84.20;;;;;;5105129;28;20035;-61
2021/07/22 07:46:57;;;;;;;;;;;28.00;84.00;;;;;;5104098;28;19927;-60
2021/07/22 07:49:46;;;;;;;;;;;27.20;84.30;;;;;;5101214;28;19928;-61
2021/07/22 07:52:36;;;;;;;;;;;27.60;84.10;;;;;;5101536;28;19924;-60
2021/07/22 07:55:25;;;;;;;;;;;27.70;82.80;;;;;;5111029;28;19924;-63
2021/07/22 07:58:14;;;;;;;;;;;27.70;82.30;;;;;;5108891;28;20032;-60
2021/07/22 08:01:02;;;;;;;;;;;28.30;82.20;;;;;;5102764;28;19930;-61
2021/07/22 08:03:52;;;;;;;;;;;28.10;81.90;;;;;;5107833;28;19930;-61
2021/07/22 08:06:41;;;;;;;;;;;30.80;75.80;;;;;;5107382;28;19931;-61
2021/07/22 08:09:29;;;;;;;;;;;32.90;67.30;;;;;;5106869;28;19923;-60
2021/07/22 08:12:17;;;;;;;;;;;34.40;60.20;;;;;;5102060;28;19931;-61
2021/07/22 08:15:08;;;;;;;;;;;35.60;55.30;;;;;;5097792;28;19935;-61
2021/07/22 08:18:21;;;;;;;;;;;34.00;56.40;;;;;;5107367;28;19932;-62
2021/07/22 08:21:10;;;;;;;;;;;32.70;59.50;;;;;;5103349;28;20401;-61
2021/07/22 08:23:59;;;;;;;;;;;30.90;62.70;;;;;;5108612;28;19928;-62
2021/07/22 08:26:47;;;;;;;;;;;30.30;66.30;;;;;;5111061;28;19985;-61
2021/07/22 08:29:39;;;;;;;;;;;30.20;67.10;;;;;;5110827;28;19924;-61
2021/07/22 08:32:28;;;;;;;;;;;29.90;66.50;;;;;;5101466;28;19938;-61
2021/07/22 08:35:16;;;;;;;;;;;29.30;67.60;;;;;;5109386;28;19928;-62
2021/07/22 08:38:06;;;;;;;;;;;29.20;69.60;;;;;;5105673;28;20360;-61
2021/07/22 08:40:54;;;;;;;;;;;28.70;69.00;;;;;;5104937;28;20336;-61
2021/07/22 08:44:08;;;;;;;;;;;29.20;68.60;;;;;;5103028;28;19927;-61
2021/07/22 08:47:20;;;;;;;;;;;30.80;67.60;;;;;;5101166;28;19984;-60
2021/07/22 08:50:11;;;;;;;;;;;33.20;57.20;;;;;;5104357;28;20258;-61
2021/07/22 08:52:59;;;;;;;;;;;32.60;59.10;;;;;;5109304;28;20390;-61
2021/07/22 08:55:49;;;;;;;;;;;34.00;57.10;;;;;;5108463;28;19975;-61
2021/07/22 08:58:38;;;;;;;;;;;31.90;58.10;;;;;;5108881;28;20426;-62
2021/07/22 09:01:28;;;;;;;;;;;30.50;63.50;;;;;;5102205;28;20374;-61
2021/07/22 09:04:17;;;;;;;;;;;28.90;66.60;;;;;;5109133;28;19957;-61
2021/07/22 09:07:05;;;;;;;;;;;29.50;68.70;;;;;;5109251;28;19931;-61
2021/07/22 09:10:14;;;;;;;;;;;30.50;66.30;;;;;;5102248;28;20050;-61
2021/07/22 09:13:04;;;;;;;;;;;29.00;66.90;;;;;;5104292;28;20045;-61
2021/07/22 09:15:53;;;;;;;;;;;31.40;63.90;;;;;;5093967;28;20526;-61
2021/07/22 09:18:44;;;;;;;;;;;34.40;56.30;;;;;;5108126;28;19927;-64
2021/07/22 09:21:33;;;;;;;;;;;38.40;48.90;;;;;;5104565;28;19924;-62
2021/07/22 09:24:21;;;;;;;;;;;39.70;43.20;;;;;;5099276;28;19935;-61
2021/07/22 09:27:10;;;;;;;;;;;39.90;41.70;;;;;;5106843;28;20127;-60
2021/07/22 09:30:01;;;;;;;;;;;41.40;39.10;;;;;;5106586;28;20358;-61
2021/07/22 09:32:50;;;;;;;;;;;41.40;37.80;;;;;;5103345;28;19931;-61
2021/07/22 09:35:38;;;;;;;;;;;42.20;37.10;;;;;;5100927;28;19927;-60
2021/07/22 09:38:27;;;;;;;;;;;34.30;45.00;;;;;;5102603;28;19924;-60
2021/07/22 09:41:18;;;;;;;;;;;32.10;52.20;;;;;;5094841;28;19924;-59
2021/07/22 09:44:06;;;;;;;;;;;29.10;59.30;;;;;;5095451;28;19924;-60
2021/07/22 09:46:56;;;;;;;;;;;26.80;65.10;;;;;;5097470;28;19924;-60
2021/07/22 09:49:45;;;;;;;;;;;26.90;69.70;;;;;;5102913;28;19936;-60
2021/07/22 09:52:33;;;;;;;;;;;27.00;71.20;;;;;;5108242;28;19924;-59
2021/07/22 09:55:28;;;;;;;;;;;27.30;69.70;;;;;;5103180;28;20718;-60
2021/07/22 09:58:17;;;;;;;;;;;27.10;69.50;;;;;;5106299;28;20389;-60
2021/07/22 10:01:06;;;;;;;;;;;27.30;72.80;;;;;;5098459;28;19923;-60
2021/07/22 10:03:57;;;;;;;;;;;27.00;70.80;;;;;;5104285;28;19992;-60
2021/07/22 10:06:46;;;;;;;;;;;27.30;72.30;;;;;;5104992;28;20030;-60
2021/07/22 10:09:35;;;;;;;;;;;27.60;69.80;;;;;;5106074;28;20061;-60
2021/07/22 10:12:24;;;;;;;;;;;27.70;70.10;;;;;;5099519;28;19924;-60
2021/07/22 10:15:14;;;;;;;;;;;27.70;71.30;;;;;;5094775;28;19931;-61
2021/07/22 10:18:06;;;;;;;;;;;27.30;69.80;;;;;;5105920;28;19927;-60
2021/07/22 10:20:59;;;;;;;;;;;27.70;69.10;;;;;;5102042;28;19963;-60
2021/07/22 10:23:48;;;;;;;;;;;26.40;70.20;;;;;;5104512;28;20021;-63
2021/07/22 10:26:40;;;;;;;;;;;27.00;71.90;;;;;;5108607;28;19927;-60
2021/07/22 10:29:28;;;;;;;;;;;27.40;68.60;;;;;;5105363;28;20371;-60
2021/07/22 10:32:17;;;;;;;;;;;27.90;69.10;;;;;;5102083;28;19924;-60
2021/07/22 10:35:32;;;;;;;;;;;26.90;72.10;;;;;;5106807;28;19924;-60
2021/07/22 10:38:23;;;;;;;;;;;27.40;71.60;;;;;;5110358;28;19985;-60
2021/07/22 10:41:33;;;;;;;;;;;28.10;68.80;;;;;;5111879;28;20266;-62
2021/07/22 10:44:31;;;;;;;;;;;28.00;68.00;;;;;;5112498;28;19923;-60
2021/07/22 10:47:20;;;;;;;;;;;27.40;70.20;;;;;;5107254;28;20043;-60
2021/07/22 10:50:09;;;;;;;;;;;26.80;72.90;;;;;;5105369;28;19932;-60
2021/07/22 10:53:03;;;;;;;;;;;26.60;73.40;;;;;;5105512;28;19931;-59
2021/07/22 10:55:55;;;;;;;;;;;26.40;74.00;;;;;;5097222;28;19931;-60
2021/07/22 10:58:49;;;;;;;;;;;26.80;74.90;;;;;;5110303;28;19928;-60
2021/07/22 11:01:57;;;;;;;;;;;26.90;74.30;;;;;;5103305;28;19927;-60
2021/07/22 11:04:50;;;;;;;;;;;27.10;70.50;;;;;;5105510;28;20402;-60
2021/07/22 11:07:42;;;;;;;;;;;27.20;70.10;;;;;;5103886;28;19932;-60
2021/07/22 11:10:52;;;;;;;;;;;27.50;69.50;;;;;;5092602;28;19934;-63
2021/07/22 11:13:44;;;;;;;;;;;27.60;69.10;;;;;;5099274;28;19928;-60
2021/07/22 11:16:53;;;;;;;;;;;27.40;68.00;;;;;;5093038;28;19924;-64
2021/07/22 11:19:41;;;;;;;;;;;27.70;66.40;;;;;;5099868;28;20173;-60
2021/07/22 11:22:36;;;;;;;;;;;28.10;65.50;;;;;;5106691;28;19927;-60
2021/07/22 11:25:26;;;;;;;;;;;27.90;64.60;;;;;;5109700;28;19923;-59
2021/07/22 11:28:15;;;;;;;;;;;28.00;64.40;;;;;;5100155;28;19924;-59
2021/07/22 11:31:06;;;;;;;;;;;28.10;65.50;;;;;;5098808;28;19924;-60
2021/07/22 11:34:00;;;;;;;;;;;28.00;65.50;;;;;;5103258;28;20263;-59
2021/07/22 11:36:49;;;;;;;;;;;28.80;64.70;;;;;;5110378;28;19923;-60
2021/07/22 11:39:40;;;;;;;;;;;28.90;63.30;;;;;;5108573;28;19935;-60
2021/07/22 11:42:29;;;;;;;;;;;27.80;63.90;;;;;;5101430;28;19924;-59
2021/07/22 11:45:17;;;;;;;;;;;27.70;65.20;;;;;;5101665;28;19969;-60
2021/07/22 11:48:24;;;;;;;;;;;27.50;65.70;;;;;;5098323;28;19924;-60
2021/07/22 11:51:13;;;;;;;;;;;27.50;66.50;;;;;;5101876;28;20105;-59
2021/07/22 11:54:02;;;;;;;;;;;27.30;67.60;;;;;;5101222;28;19931;-60
2021/07/22 11:56:54;;;;;;;;;;;27.40;68.60;;;;;;5097832;28;19950;-61
2021/07/22 11:59:43;;;;;;;;;;;27.40;68.60;;;;;;5104625;28;20264;-60
2021/07/22 12:02:31;;;;;;;;;;;27.30;68.80;;;;;;5105999;28;19930;-59
2021/07/22 12:05:24;;;;;;;;;;;27.60;68.70;;;;;;5096957;28;19928;-60
2021/07/22 12:08:16;;;;;;;;;;;27.60;67.30;;;;;;5109213;28;20283;-62
2021/07/22 12:11:05;;;;;;;;;;;27.60;69.10;;;;;;5106993;28;19931;-61
2021/07/22 12:13:54;;;;;;;;;;;27.50;69.30;;;;;;5106451;28;19934;-59
2021/07/22 12:16:44;;;;;;;;;;;27.60;69.40;;;;;;5103431;28;20344;-59
2021/07/22 12:19:34;;;;;;;;;;;27.50;70.20;;;;;;5102090;28;19934;-59
2021/07/22 12:22:27;;;;;;;;;;;27.40;69.00;;;;;;5102465;28;20404;-59
2021/07/22 12:25:16;;;;;;;;;;;27.20;68.70;;;;;;5097613;28;19924;-60
2021/07/22 12:28:10;;;;;;;;;;;27.10;69.40;;;;;;5104105;28;19928;-60
2021/07/22 12:31:14;;;;;;;;;;;27.10;70.00;;;;;;5096095;28;19932;-59
2021/07/22 12:34:03;;;;;;;;;;;27.10;69.20;;;;;;5100334;28;20018;-59
2021/07/22 12:36:52;;;;;;;;;;;27.20;68.80;;;;;;5107560;28;19977;-59
2021/07/22 12:39:42;;;;;;;;;;;27.00;68.00;;;;;;5109117;28;19938;-59
2021/07/22 12:42:30;;;;;;;;;;;26.90;70.70;;;;;;5105396;28;19932;-59
2021/07/22 12:45:22;;;;;;;;;;;26.50;68.30;;;;;;5100072;28;19934;-59
2021/07/22 12:48:11;;;;;;;;;;;26.20;71.10;;;;;;5098481;28;20299;-59
2021/07/22 12:51:08;;;;;;;;;;;26.20;71.80;;;;;;5106754;28;19962;-60
2021/07/22 12:53:57;;;;;;;;;;;26.30;69.70;;;;;;5102013;28;19972;-60
2021/07/22 12:56:48;;;;;;;;;;;26.30;69.40;;;;;;5107237;28;19931;-60
2021/07/22 12:59:36;;;;;;;;;;;26.40;69.30;;;;;;5105093;28;19934;-60
2021/07/22 13:02:26;;;;;;;;;;;26.30;69.60;;;;;;5103021;28;19923;-60
2021/07/22 13:05:15;;;;;;;;;;;26.40;70.60;;;;;;5109990;28;20361;-60
2021/07/22 13:08:03;;;;;;;;;;;26.60;69.50;;;;;;5109331;28;19927;-61
2021/07/22 13:11:10;;;;;;;;;;;26.60;69.10;;;;;;5099435;28;20030;-60
2021/07/22 13:14:00;;;;;;;;;;;26.50;68.30;;;;;;5104161;28;19924;-60
2021/07/22 13:16:48;;;;;;;;;;;26.60;67.00;;;;;;5097854;28;19924;-61
2021/07/22 13:19:36;;;;;;;;;;;26.70;69.00;;;;;;5109394;28;19963;-61
2021/07/22 13:22:25;;;;;;;;;;;27.00;68.90;;;;;;5115014;28;20019;-60
2021/07/22 13:25:14;;;;;;;;;;;27.20;68.40;;;;;;5098706;28;20090;-60
2021/07/22 13:28:02;;;;;;;;;;;27.20;66.80;;;;;;5115214;28;20349;-60
2021/07/22 13:30:52;;;;;;;;;;;26.90;67.10;;;;;;5108109;28;19959;-61
2021/07/22 13:34:05;;;;;;;;;;;26.40;68.10;;;;;;5106975;28;19954;-60
2021/07/22 13:36:57;;;;;;;;;;;26.50;67.20;;;;;;5103478;28;19965;-60
2021/07/22 13:39:45;;;;;;;;;;;26.70;66.10;;;;;;5103873;28;20390;-60
2021/07/22 13:42:33;;;;;;;;;;;26.70;67.70;;;;;;5113602;28;20025;-60
2021/07/22 13:45:21;;;;;;;;;;;26.70;68.30;;;;;;5100574;28;19973;-60
2021/07/22 13:56:55;;;;;;;;;;;27.50;70.20;;;;;;5093661;28;20446;-59
2021/07/22 13:59:45;;;;;;;;;;;27.80;65.40;;;;;;5110437;28;19987;-59
2021/07/22 14:02:38;;;;;;;;;;;27.80;64.70;;;;;;5111063;28;19938;-60
2021/07/22 14:05:27;;;;;;;;;;;27.60;65.20;;;;;;5106774;27;19931;-59
2021/07/22 14:08:17;;;;;;;;;;;27.50;67.80;;;;;;5107603;28;19931;-60
2021/07/22 14:11:05;;;;;;;;;;;27.40;68.10;;;;;;5112387;28;19924;-60
2021/07/22 14:13:55;;;;;;;;;;;27.40;69.20;;;;;;5110836;28;19923;-60
2021/07/22 14:16:44;;;;;;;;;;;27.80;67.60;;;;;;5106374;28;20433;-59
2021/07/22 14:19:41;;;;;;;;;;;28.10;64.40;;;;;;5112108;28;19928;-59
2021/07/22 14:22:30;;;;;;;;;;;28.00;65.40;;;;;;5110831;28;20443;-60
2021/07/22 14:25:18;;;;;;;;;;;27.90;64.70;;;;;;5104986;28;19923;-62
2021/07/22 14:28:07;;;;;;;;;;;27.60;65.70;;;;;;5111011;28;19985;-59
2021/07/22 14:30:57;;;;;;;;;;;27.60;66.90;;;;;;5101555;28;19963;-58
2021/07/22 14:33:47;;;;;;;;;;;27.60;66.20;;;;;;5108750;28;19924;-60
2021/07/22 14:36:35;;;;;;;;;;;27.60;68.10;;;;;;5112945;28;19970;-62
2021/07/22 14:39:24;;;;;;;;;;;28.30;66.00;;;;;;5104871;28;19949;-59
2021/07/22 14:42:12;;;;;;;;;;;28.80;64.80;;;;;;5104306;28;20287;-59
2021/07/22 14:45:01;;;;;;;;;;;29.00;63.30;;;;;;5103551;28;20310;-59
2021/07/22 14:47:51;;;;;;;;;;;28.90;65.80;;;;;;5102167;28;19931;-59
2021/07/22 14:50:40;;;;;;;;;;;28.60;61.60;;;;;;5110097;28;19928;-59
2021/07/22 14:53:28;;;;;;;;;;;28.20;62.20;;;;;;5108621;28;20002;-63
2021/07/22 14:59:30;;;;;;;;;;;28.10;64.10;;;;;;5106437;28;19938;-60
2021/07/22 15:02:19;;;;;;;;;;;27.90;62.90;;;;;;5104650;28;20285;-59
2021/07/22 15:05:10;;;;;;;;;;;27.70;61.00;;;;;;5109122;28;20363;-60
2021/07/22 15:07:59;;;;;;;;;;;27.80;61.90;;;;;;5110151;28;20438;-61
2021/07/22 15:10:47;;;;;;;;;;;27.10;62.00;;;;;;5111034;28;20072;-63
2021/07/22 15:13:36;;;;;;;;;;;26.80;64.60;;;;;;5106960;28;20010;-60
2021/07/22 15:16:25;;;;;;;;;;;27.10;66.90;;;;;;5103398;28;19931;-60
2021/07/22 15:19:14;;;;;;;;;;;27.40;64.00;;;;;;5105434;28;19924;-59
2021/07/22 15:22:04;;;;;;;;;;;27.40;63.20;;;;;;5107803;28;19938;-60
2021/07/22 15:24:52;;;;;;;;;;;27.60;64.50;;;;;;5104222;28;19975;-59
2021/07/22 15:27:40;;;;;;;;;;;27.70;64.10;;;;;;5109556;28;20291;-59
2021/07/22 15:30:29;;;;;;;;;;;27.70;60.70;;;;;;5102802;28;19924;-59
2021/07/22 15:33:17;;;;;;;;;;;27.60;61.20;;;;;;5105423;28;19955;-59
2021/07/22 15:36:06;;;;;;;;;;;27.90;62.80;;;;;;5106047;28;19931;-60
2021/07/22 15:38:56;;;;;;;;;;;27.90;63.40;;;;;;5117369;28;20494;-62
2021/07/22 15:41:44;;;;;;;;;;;27.90;63.40;;;;;;5122674;28;19923;-60
2021/07/22 15:44:33;;;;;;;;;;;27.90;62.10;;;;;;5121323;28;19928;-59
2021/07/22 15:47:21;;;;;;;;;;;27.80;63.00;;;;;;5115876;28;19924;-59
2021/07/22 15:50:10;;;;;;;;;;;27.90;62.50;;;;;;5124048;28;20007;-59
2021/07/22 15:52:59;;;;;;;;;;;27.70;63.00;;;;;;5126257;28;19966;-62
2021/07/22 15:55:48;;;;;;;;;;;27.80;63.20;;;;;;5127214;28;19950;-59
2021/07/22 15:58:37;;;;;;;;;;;27.90;62.80;;;;;;5120858;28;19924;-59
2021/07/22 16:01:26;;;;;;;;;;;27.80;62.60;;;;;;5116920;28;20379;-59
2021/07/22 16:04:15;;;;;;;;;;;27.80;62.10;;;;;;5114196;28;19924;-59
2021/07/22 16:07:03;;;;;;;;;;;27.70;60.60;;;;;;5109099;28;19981;-62
2021/07/22 16:09:53;;;;;;;;;;;27.60;60.50;;;;;;5120745;28;20295;-60
2021/07/22 16:12:44;;;;;;;;;;;27.60;61.70;;;;;;5120742;28;20018;-59
2021/07/22 16:15:33;;;;;;;;;;;27.70;61.40;;;;;;5116026;28;19942;-60
2021/07/22 16:18:23;;;;;;;;;;;27.60;60.40;;;;;;5120443;28;19939;-58
2021/07/22 16:21:12;;;;;;;;;;;27.60;60.50;;;;;;5118828;28;19970;-59
2021/07/22 16:24:01;;;;;;;;;;;27.50;58.20;;;;;;5122276;28;19934;-59
2021/07/22 16:26:52;;;;;;;;;;;27.40;59.50;;;;;;5128059;28;19980;-59
2021/07/22 16:29:41;;;;;;;;;;;27.40;57.70;;;;;;5129219;28;19927;-59
2021/07/22 16:32:31;;;;;;;;;;;27.10;56.30;;;;;;5129569;28;19938;-61
2021/07/22 16:35:20;;;;;;;;;;;27.10;58.40;;;;;;5114975;28;19930;-59
2021/07/22 16:38:10;;;;;;;;;;;27.10;58.80;;;;;;5105606;28;19931;-59
2021/07/22 16:40:59;;;;;;;;;;;27.00;59.80;;;;;;5106621;28;20351;-59
2021/07/22 16:44:14;;;;;;;;;;;26.90;59.80;;;;;;5110515;28;19927;-59
2021/07/22 16:47:03;;;;;;;;;;;26.80;59.90;;;;;;5104669;28;19924;-58
2021/07/22 16:49:55;;;;;;;;;;;26.70;60.60;;;;;;5107592;28;19924;-59
2021/07/22 16:52:43;;;;;;;;;;;26.70;60.30;;;;;;5120958;28;19927;-59
2021/07/22 16:55:32;;;;;;;;;;;26.70;59.40;;;;;;5118725;28;19927;-59
2021/07/22 16:58:21;;;;;;;;;;;26.60;60.50;;;;;;5114256;28;19944;-59
2021/07/22 17:01:09;;;;;;;;;;;26.60;60.80;;;;;;5116143;28;19935;-61
2021/07/22 17:03:59;;;;;;;;;;;26.70;59.80;;;;;;5118691;28;20051;-60